createdAt,value
2023-05-04T00:02:24.796Z,4.47
2023-05-04T00:04:52.312Z,5.37
2023-05-04T00:07:19.530Z,5.20
2023-05-04T00:09:46.519Z,4.90
2023-05-04T00:12:13.443Z,5.47
2023-05-04T00:14:40.391Z,5.50
2023-05-04T00:17:09.140Z,5.57
2023-05-04T00:19:37.056Z,5.73
2023-05-04T00:22:03.987Z,5.43
2023-05-04T00:24:30.860Z,6.00
2023-05-04T00:26:57.729Z,5.57
2023-05-04T00:29:24.715Z,5.70
2023-05-04T00:31:51.615Z,5.97
2023-05-04T00:34:19.817Z,5.67
2023-05-04T00:36:47.093Z,6.03
2023-05-04T00:39:14.092Z,6.20
2023-05-04T00:41:41.297Z,5.80
2023-05-04T00:44:08.341Z,6.37
2023-05-04T00:46:36.662Z,5.27
2023-05-04T00:49:04.294Z,6.07
2023-05-04T00:51:33.815Z,6.20
2023-05-04T00:54:01.008Z,5.87
2023-05-04T00:56:31.108Z,6.63
2023-05-04T00:58:58.513Z,6.23
2023-05-04T01:01:26.196Z,5.70
2023-05-04T01:03:55.253Z,6.07
2023-05-04T01:06:34.905Z,5.93
2023-05-04T01:09:10.832Z,6.03
2023-05-04T01:11:46.923Z,6.20
2023-05-04T01:14:15.462Z,5.43
2023-05-04T01:16:42.499Z,5.97
2023-05-04T01:19:09.441Z,6.10
2023-05-04T01:21:38.828Z,6.30
2023-05-04T01:24:06.892Z,5.53
2023-05-04T01:26:41.771Z,6.50
2023-05-04T01:29:17.522Z,6.60
2023-05-04T01:31:46.708Z,6.53
2023-05-04T01:34:14.293Z,5.80
2023-05-04T01:36:44.703Z,6.23
2023-05-04T01:39:12.026Z,5.90
2023-05-04T01:41:39.279Z,5.70
2023-05-04T01:44:06.199Z,6.30
2023-05-04T01:46:33.560Z,6.57
2023-05-04T01:49:00.503Z,6.27
2023-05-04T01:51:27.451Z,5.67
2023-05-04T01:53:55.704Z,6.00
2023-05-04T01:56:22.698Z,6.77
2023-05-04T01:58:49.581Z,5.50
2023-05-04T02:01:16.567Z,6.03
2023-05-04T02:03:44.442Z,5.83
2023-05-04T02:06:11.776Z,6.00
2023-05-04T02:08:39.254Z,6.43
2023-05-04T02:11:07.517Z,6.13
2023-05-04T02:13:34.452Z,6.33
2023-05-04T02:16:01.474Z,6.37
2023-05-04T02:18:28.688Z,6.13
2023-05-04T02:20:55.888Z,6.13
2023-05-04T02:23:22.857Z,6.27
2023-05-04T02:25:49.830Z,5.97
2023-05-04T02:28:18.209Z,5.77
2023-05-04T02:30:45.212Z,6.07
2023-05-04T02:33:12.139Z,6.30
2023-05-04T02:35:39.145Z,5.70
2023-05-04T02:38:06.471Z,5.80
2023-05-04T02:40:33.545Z,6.30
2023-05-04T02:43:00.479Z,5.50
2023-05-04T02:45:28.719Z,5.63
2023-05-04T02:47:55.662Z,5.50
2023-05-04T02:50:22.659Z,6.23
2023-05-04T02:52:49.570Z,5.53
2023-05-04T02:55:16.902Z,5.47
2023-05-04T02:57:43.833Z,5.70
2023-05-04T03:00:12.003Z,5.90
2023-05-04T03:02:40.242Z,5.97
2023-05-04T03:05:08.129Z,5.97
2023-05-04T03:07:35.058Z,5.23
2023-05-04T03:10:02.197Z,5.67
2023-05-04T03:12:29.119Z,5.50
2023-05-04T03:14:56.091Z,5.43
2023-05-04T03:17:23.053Z,5.60
2023-05-04T03:19:51.600Z,5.70
2023-05-04T03:22:18.549Z,5.30
2023-05-04T03:24:45.523Z,5.77
2023-05-04T03:27:12.392Z,5.30
2023-05-04T03:29:39.380Z,5.30
2023-05-04T03:32:06.654Z,5.50
2023-05-04T03:34:33.869Z,6.17
2023-05-04T03:37:02.059Z,5.27
2023-05-04T03:39:29.086Z,5.47
2023-05-04T03:41:55.993Z,5.87
2023-05-04T03:44:22.955Z,5.30
2023-05-04T03:46:49.886Z,4.90
2023-05-04T03:49:16.813Z,5.60
2023-05-04T03:51:43.706Z,5.13
2023-05-04T03:54:12.277Z,4.87
2023-05-04T03:56:39.378Z,4.87
2023-05-04T03:59:06.246Z,5.47
2023-05-04T04:01:33.161Z,5.17
2023-05-04T04:04:00.253Z,5.37
2023-05-04T04:06:27.417Z,4.77
2023-05-04T04:08:54.301Z,4.93
2023-05-04T04:11:22.535Z,5.03
2023-05-04T04:13:49.502Z,4.70
2023-05-04T04:16:16.500Z,4.80
2023-05-04T04:18:43.466Z,4.67
2023-05-04T04:21:10.580Z,4.87
2023-05-04T04:23:37.840Z,4.73
2023-05-04T04:26:06.554Z,4.73
2023-05-04T04:28:35.088Z,4.57
2023-05-04T04:31:03.313Z,5.37
2023-05-04T04:33:30.805Z,5.13
2023-05-04T04:35:57.707Z,4.43
2023-05-04T04:38:24.850Z,4.60
2023-05-04T04:40:52.584Z,4.40
2023-05-04T04:43:19.522Z,4.77
2023-05-04T04:45:47.734Z,3.90
2023-05-04T04:48:14.639Z,4.60
2023-05-04T04:50:41.613Z,4.10
2023-05-04T04:53:08.470Z,4.83
2023-05-04T04:55:35.518Z,4.70
2023-05-04T04:58:02.507Z,4.63
2023-05-04T05:00:29.986Z,4.33
2023-05-04T05:02:58.228Z,4.70
2023-05-04T05:05:25.191Z,4.43
2023-05-04T05:07:52.136Z,4.40
2023-05-04T05:10:19.452Z,4.20
2023-05-04T05:12:46.437Z,3.70
2023-05-04T05:15:13.678Z,4.47
2023-05-04T05:17:40.730Z,4.43
2023-05-04T05:20:11.204Z,4.47
2023-05-04T05:22:38.703Z,4.40
2023-05-04T05:25:08.920Z,4.30
2023-05-04T05:27:36.689Z,4.37
2023-05-04T05:30:06.306Z,3.70
2023-05-04T05:32:33.964Z,5.50
2023-05-04T05:35:01.033Z,4.30
2023-05-04T05:37:29.293Z,3.83
2023-05-04T05:39:56.279Z,3.90
2023-05-04T05:42:23.316Z,3.60
2023-05-04T05:44:51.074Z,4.43
2023-05-04T05:47:18.190Z,4.00
2023-05-04T05:49:46.339Z,3.93
2023-05-04T05:52:13.682Z,4.17
2023-05-04T05:54:42.253Z,3.33
2023-05-04T05:57:09.187Z,3.67
2023-05-04T05:59:36.092Z,3.73
2023-05-04T06:02:03.089Z,3.80
2023-05-04T06:04:30.192Z,3.43
2023-05-04T06:06:57.086Z,3.77
2023-05-04T06:09:23.984Z,3.83
2023-05-04T06:11:54.749Z,3.67
2023-05-04T06:14:22.374Z,3.53
2023-05-04T06:16:49.526Z,3.70
2023-05-04T06:19:17.809Z,3.13
2023-05-04T06:21:44.683Z,2.80
2023-05-04T06:24:12.402Z,4.67
2023-05-04T06:26:39.318Z,3.40
2023-05-04T06:29:07.857Z,7.20
2023-05-04T06:31:35.638Z,3.50
2023-05-04T06:34:03.070Z,3.37
2023-05-04T06:36:30.009Z,3.10
2023-05-04T06:38:58.255Z,3.77
2023-05-04T06:41:25.578Z,2.93
2023-05-04T06:43:52.956Z,3.37
2023-05-04T06:46:21.395Z,3.13
2023-05-04T06:48:48.596Z,2.83
2023-05-04T06:51:16.147Z,4.67
2023-05-04T06:53:43.020Z,4.80
2023-05-04T06:56:19.837Z,3.13
2023-05-04T06:58:47.495Z,3.30
2023-05-04T07:01:16.874Z,3.33
2023-05-04T07:03:46.525Z,3.67
2023-05-04T07:06:13.536Z,3.23
2023-05-04T07:08:40.664Z,3.13
2023-05-04T07:11:09.419Z,3.10
2023-05-04T07:13:36.409Z,2.67
2023-05-04T07:16:06.800Z,3.27
2023-05-04T07:18:33.884Z,3.07
2023-05-04T07:21:21.960Z,3.70
2023-05-04T07:23:49.251Z,4.40
2023-05-04T07:26:16.410Z,3.43
2023-05-04T07:28:43.950Z,3.87
2023-05-04T07:31:12.853Z,2.90
2023-05-04T07:33:40.235Z,2.80
2023-05-04T07:36:09.142Z,3.30
2023-05-04T07:38:37.007Z,3.10
2023-05-04T07:41:04.312Z,3.13
2023-05-04T07:43:31.273Z,2.73
2023-05-04T07:45:58.545Z,2.23
2023-05-04T07:48:26.596Z,2.60
2023-05-04T07:50:53.997Z,3.73
2023-05-04T07:53:22.576Z,2.90
2023-05-04T07:55:49.620Z,3.50
2023-05-04T07:58:17.109Z,3.00
2023-05-04T08:00:44.120Z,3.57
2023-05-04T08:03:11.272Z,3.10
2023-05-04T08:05:38.248Z,3.40
2023-05-04T08:08:05.532Z,2.80
2023-05-04T08:10:36.750Z,3.20
2023-05-04T08:13:04.141Z,2.77
2023-05-04T08:15:35.868Z,7.20
2023-05-04T08:18:04.512Z,3.10
2023-05-04T08:20:32.898Z,3.00
2023-05-04T08:23:04.043Z,2.60
2023-05-04T08:25:32.677Z,3.22
2023-05-04T08:27:59.578Z,2.87
2023-05-04T08:30:27.154Z,2.20
2023-05-04T08:32:56.463Z,2.50
2023-05-04T08:35:27.797Z,17.10
2023-05-04T08:37:54.816Z,2.20
2023-05-04T08:40:24.285Z,2.30
2023-05-04T08:42:53.251Z,1.80
2023-05-04T08:45:21.537Z,1.83
2023-05-04T08:47:48.517Z,2.17
2023-05-04T08:50:15.563Z,2.33
2023-05-04T08:52:46.629Z,3.10
2023-05-04T08:55:17.072Z,2.53
2023-05-04T08:57:45.067Z,2.73
2023-05-04T09:00:17.949Z,2.60
2023-05-04T09:02:46.081Z,3.03
2023-05-04T09:05:15.780Z,2.30
2023-05-04T09:07:42.787Z,2.93
2023-05-04T09:10:10.895Z,2.17
2023-05-04T09:12:38.222Z,2.87
2023-05-04T09:15:17.308Z,2.40
2023-05-04T09:20:25.700Z,2.40
2023-05-04T09:23:04.512Z,2.70
2023-05-04T09:25:32.092Z,2.27
2023-05-04T09:27:59.780Z,2.42
2023-05-04T09:30:28.223Z,2.33
2023-05-04T09:32:55.727Z,2.27
2023-05-04T09:35:34.073Z,2.43
2023-05-04T09:38:01.541Z,2.93
2023-05-04T09:40:33.006Z,2.70
2023-05-04T09:43:01.009Z,2.37
2023-05-04T09:45:40.011Z,2.80
2023-05-04T09:48:18.917Z,2.23
2023-05-04T09:50:54.804Z,2.70
2023-05-04T09:53:24.781Z,2.07
2023-05-04T09:56:08.481Z,2.33
2023-05-04T09:58:36.884Z,2.13
2023-05-04T10:01:06.332Z,2.50
2023-05-04T10:03:34.822Z,2.70
2023-05-04T10:06:06.380Z,2.70
2023-05-04T10:08:33.581Z,2.37
2023-05-04T10:11:01.749Z,3.00
2023-05-04T10:13:29.165Z,2.75
2023-05-04T10:16:14.203Z,2.30
2023-05-04T10:19:18.492Z,2.60
2023-05-04T10:22:07.885Z,2.77
2023-05-04T10:25:22.466Z,2.10
2023-05-04T10:28:04.497Z,2.35
2023-05-04T10:30:32.396Z,2.65
2023-05-04T10:33:02.465Z,2.35
2023-05-04T10:35:29.489Z,2.40
2023-05-04T10:37:57.271Z,1.98
2023-05-04T10:40:36.618Z,2.35
2023-05-04T10:43:04.400Z,2.33
2023-05-04T10:45:39.289Z,3.47
2023-05-04T10:48:08.867Z,3.63
2023-05-04T10:50:44.090Z,2.60
2023-05-04T10:53:12.516Z,2.70
2023-05-04T10:55:41.534Z,3.97
2023-05-04T10:58:10.856Z,2.17
2023-05-04T11:00:39.611Z,2.40
2023-05-04T11:03:09.739Z,3.23
2023-05-04T11:05:42.445Z,2.40
2023-05-04T11:08:18.325Z,4.10
2023-05-04T11:10:47.782Z,2.60
2023-05-04T11:13:16.197Z,2.00
2023-05-04T11:15:51.431Z,2.50
2023-05-04T11:18:28.577Z,2.53
2023-05-04T11:20:56.242Z,2.33
2023-05-04T11:23:24.574Z,2.30
2023-05-04T11:25:51.845Z,2.17
2023-05-04T11:28:20.342Z,3.93
2023-05-04T11:30:56.174Z,2.30
2023-05-04T11:33:24.029Z,2.87
2023-05-04T11:36:01.940Z,2.40
2023-05-04T11:38:29.796Z,2.50
2023-05-04T11:40:57.299Z,2.57
2023-05-04T11:43:24.492Z,2.50
2023-05-04T11:45:53.964Z,2.10
2023-05-04T11:48:21.382Z,2.97
2023-05-04T11:50:48.947Z,2.90
2023-05-04T11:53:22.991Z,2.10
2023-05-04T11:55:52.226Z,2.33
2023-05-04T11:58:25.652Z,1.90
2023-05-04T12:00:56.938Z,4.10
2023-05-04T12:14:30.790Z,2.00
2023-05-04T12:17:00.977Z,1.98
2023-05-04T12:19:27.459Z,1.90
2023-05-04T12:21:57.514Z,2.33
2023-05-04T12:24:25.960Z,2.67
2023-05-04T12:26:52.289Z,2.43
2023-05-04T12:29:18.644Z,2.40
2023-05-04T12:38:41.414Z,2.90
2023-05-04T12:41:10.056Z,3.70
2023-05-04T12:43:36.583Z,2.33
2023-05-04T12:46:03.591Z,2.23
2023-05-04T12:48:31.894Z,2.40
2023-05-04T12:50:59.722Z,2.20
2023-05-04T12:53:31.103Z,2.10
2023-05-04T13:03:39.021Z,2.20
2023-05-04T13:06:06.121Z,2.23
2023-05-04T13:08:32.746Z,2.23
2023-05-04T13:10:59.077Z,1.97
2023-05-04T13:16:07.930Z,2.77
2023-05-04T13:18:34.957Z,2.10
2023-05-04T13:21:02.082Z,2.30
2023-05-04T13:23:29.680Z,1.83
2023-05-04T13:25:56.853Z,2.37
2023-05-04T13:28:24.126Z,2.30
2023-05-04T13:30:51.075Z,2.60
2023-05-04T13:33:28.869Z,2.67
2023-05-04T13:35:58.484Z,2.40
2023-05-04T13:38:26.159Z,2.10
2023-05-04T13:40:53.241Z,2.40
2023-05-04T13:43:21.029Z,2.33
2023-05-04T13:45:48.344Z,1.90
2023-05-04T13:48:15.299Z,2.40
2023-05-04T13:50:43.513Z,2.50
2023-05-04T13:53:11.504Z,2.13
2023-05-04T13:55:38.409Z,2.10
2023-05-04T13:58:05.486Z,2.53
2023-05-04T14:00:32.561Z,2.30
2023-05-04T14:02:59.605Z,2.40
2023-05-04T14:05:26.988Z,2.07
2023-05-04T14:07:55.212Z,2.20
2023-05-04T14:10:22.398Z,2.03
2023-05-04T14:12:52.914Z,1.93
2023-05-04T14:15:22.567Z,2.13
2023-05-04T14:17:49.721Z,2.33
2023-05-04T14:20:16.916Z,2.20
2023-05-04T14:22:44.834Z,2.60
2023-05-04T14:25:13.924Z,1.95
2023-05-04T14:27:42.678Z,1.83
2023-05-04T14:30:11.569Z,1.90
2023-05-04T14:32:38.716Z,2.13
2023-05-04T14:35:09.684Z,3.13
2023-05-04T14:37:39.411Z,2.00
2023-05-04T14:40:09.325Z,2.00
2023-05-04T14:42:39.118Z,2.20
2023-05-04T14:45:08.111Z,2.63
2023-05-04T14:47:35.342Z,2.43
2023-05-04T14:50:02.539Z,2.37
2023-05-04T14:52:29.504Z,2.50
2023-05-04T14:54:56.438Z,1.90
2023-05-04T14:57:23.379Z,1.80
2023-05-04T14:59:52.080Z,2.10
2023-05-04T15:02:19.153Z,2.60
2023-05-04T15:04:46.860Z,2.00
2023-05-04T15:07:18.529Z,2.20
2023-05-04T15:09:45.534Z,2.60
2023-05-04T15:12:12.479Z,1.73
2023-05-04T15:14:39.416Z,2.97
2023-05-04T15:17:07.672Z,2.20
2023-05-04T15:19:38.009Z,1.77
2023-05-04T15:22:04.955Z,1.87
2023-05-04T15:24:31.915Z,3.60
2023-05-04T15:26:58.853Z,2.50
2023-05-04T15:29:25.751Z,2.53
2023-05-04T15:31:54.391Z,1.67
2023-05-04T15:34:22.700Z,1.90
2023-05-04T15:36:49.684Z,2.10
2023-05-04T15:39:16.588Z,2.00
2023-05-04T15:41:43.461Z,2.10
2023-05-04T15:44:12.594Z,2.87
2023-05-04T15:46:40.457Z,1.83
2023-05-04T15:49:07.485Z,2.10
2023-05-04T15:51:35.991Z,2.47
2023-05-04T15:54:03.784Z,2.33
2023-05-04T15:56:30.696Z,2.50
2023-05-04T15:58:57.603Z,2.70
2023-05-04T16:01:24.533Z,4.47
2023-05-04T16:03:59.553Z,2.27
2023-05-04T16:06:27.279Z,2.70
2023-05-04T16:08:55.550Z,2.43
2023-05-04T16:11:22.459Z,2.87
2023-05-04T16:13:49.415Z,2.23
2023-05-04T16:16:16.340Z,2.60
2023-05-04T16:18:43.367Z,2.20
2023-05-04T16:21:10.461Z,2.37
2023-05-04T16:23:37.369Z,2.40
2023-05-04T16:26:05.678Z,2.23
2023-05-04T16:28:32.774Z,2.17
2023-05-04T16:30:59.662Z,2.80
2023-05-04T16:33:26.720Z,2.50
2023-05-04T16:35:53.691Z,2.07
2023-05-04T16:38:20.646Z,2.40
2023-05-04T16:40:47.641Z,2.60
2023-05-04T16:43:15.934Z,3.10
2023-05-04T16:45:42.959Z,2.37
2023-05-04T16:48:09.922Z,2.10
2023-05-04T16:50:36.956Z,2.27
2023-05-04T16:53:03.945Z,2.20
2023-05-04T16:55:31.482Z,1.83
2023-05-04T16:57:59.270Z,2.40
2023-05-04T17:00:28.783Z,2.13
2023-05-04T17:02:55.794Z,1.90
2023-05-04T17:05:22.767Z,2.40
2023-05-04T17:07:49.650Z,2.30
2023-05-04T17:10:18.202Z,2.47
2023-05-04T17:12:45.212Z,1.63
2023-05-04T17:15:12.620Z,3.33
2023-05-04T17:17:41.507Z,2.10
2023-05-04T17:20:14.648Z,2.23
2023-05-04T17:22:42.883Z,2.13
2023-05-04T17:25:10.960Z,2.20
2023-05-04T17:27:38.040Z,2.03
2023-05-04T17:30:06.581Z,2.63
2023-05-04T17:32:34.487Z,1.97
2023-05-04T17:35:12.235Z,2.07
2023-05-04T17:37:50.713Z,1.80
2023-05-04T17:40:17.676Z,2.13
2023-05-04T17:42:44.626Z,1.90
2023-05-04T17:45:12.259Z,1.77
2023-05-04T17:47:39.306Z,2.37
2023-05-04T17:50:08.591Z,2.03
2023-05-04T17:52:36.397Z,2.40
2023-05-04T17:55:03.975Z,2.50
2023-05-04T17:57:31.305Z,2.67
2023-05-04T17:59:58.216Z,3.40
2023-05-04T18:02:25.186Z,3.10
2023-05-04T18:04:52.090Z,2.23
2023-05-04T18:07:20.326Z,1.70
2023-05-04T18:09:47.341Z,2.27
2023-05-04T18:12:14.367Z,1.80
2023-05-04T18:14:41.259Z,2.63
2023-05-04T18:17:08.178Z,2.13
2023-05-04T18:19:36.882Z,2.17
2023-05-04T18:22:03.890Z,2.40
2023-05-04T18:24:34.018Z,2.40
2023-05-04T18:27:02.014Z,2.13
2023-05-04T18:29:29.185Z,2.30
2023-05-04T18:31:56.166Z,2.30
2023-05-04T18:34:23.175Z,2.17
2023-05-04T18:36:50.046Z,2.57
2023-05-04T18:39:16.912Z,2.03
2023-05-04T18:41:45.161Z,2.17
2023-05-04T18:44:12.018Z,1.90
2023-05-04T18:46:38.983Z,1.87
2023-05-04T18:49:05.866Z,2.83
2023-05-04T18:51:32.797Z,2.20
2023-05-04T18:54:00.135Z,2.37
2023-05-04T18:56:27.216Z,1.93
2023-05-04T18:58:55.457Z,2.40
2023-05-04T19:01:22.395Z,2.17
2023-05-04T19:03:49.427Z,2.50
2023-05-04T19:06:16.350Z,2.47
2023-05-04T19:08:43.230Z,2.47
2023-05-04T19:11:10.099Z,2.50
2023-05-04T19:13:37.178Z,2.43
2023-05-04T19:16:06.221Z,2.30
2023-05-04T19:18:34.135Z,2.40
2023-05-04T19:21:05.040Z,2.23
2023-05-04T19:23:31.937Z,2.50
2023-05-04T19:25:58.940Z,2.40
2023-05-04T19:28:25.829Z,2.93
2023-05-04T19:30:53.831Z,2.60
2023-05-04T19:33:23.223Z,2.47
2023-05-04T19:35:51.614Z,2.50
2023-05-04T19:38:18.573Z,2.83
2023-05-04T19:40:45.489Z,3.50
2023-05-04T19:43:12.395Z,2.77
2023-05-04T19:45:39.521Z,2.23
2023-05-04T19:48:06.554Z,2.33
2023-05-04T19:50:34.786Z,2.23
2023-05-04T19:53:01.675Z,2.97
2023-05-04T19:55:28.581Z,2.70
2023-05-04T19:57:56.002Z,3.07
2023-05-04T20:00:23.112Z,2.37
2023-05-04T20:02:50.531Z,2.80
2023-05-04T20:05:17.833Z,3.10
2023-05-04T20:07:46.585Z,2.93
2023-05-04T20:10:13.443Z,2.43
2023-05-04T20:12:40.710Z,2.97
2023-05-04T20:15:08.623Z,2.90
2023-05-04T20:17:35.550Z,2.87
2023-05-04T20:20:03.604Z,2.70
2023-05-04T20:22:30.630Z,2.47
2023-05-04T20:24:58.982Z,2.60
2023-05-04T20:27:25.929Z,2.40
2023-05-04T20:29:52.793Z,2.33
2023-05-04T20:32:19.680Z,2.70
2023-05-04T20:34:46.622Z,2.97
2023-05-04T20:37:13.542Z,2.93
2023-05-04T20:39:40.569Z,3.50
2023-05-04T20:42:08.765Z,3.03
2023-05-04T20:44:35.657Z,3.47
2023-05-04T20:47:02.566Z,2.70
2023-05-04T20:49:29.490Z,3.00
2023-05-04T20:51:56.418Z,2.60
2023-05-04T20:54:24.010Z,2.40
2023-05-04T20:56:50.891Z,2.93
2023-05-04T20:59:19.222Z,2.87
2023-05-04T21:01:46.258Z,3.03
2023-05-04T21:04:14.774Z,2.97
2023-05-04T21:06:41.754Z,3.03
2023-05-04T21:09:08.921Z,3.33
2023-05-04T21:11:35.787Z,3.57
2023-05-04T21:14:03.177Z,3.17
2023-05-04T21:16:31.581Z,2.83
2023-05-04T21:18:58.643Z,2.93
2023-05-04T21:21:25.917Z,2.97
2023-05-04T21:23:52.793Z,2.53
2023-05-04T21:26:19.901Z,3.33
2023-05-04T21:28:46.744Z,6.80
2023-05-04T21:31:15.027Z,2.83
2023-05-04T21:33:43.263Z,2.77
2023-05-04T21:36:12.469Z,3.37
2023-05-04T21:38:39.566Z,3.20
2023-05-04T21:41:13.677Z,3.20
2023-05-04T21:43:40.826Z,3.40
2023-05-04T21:46:08.372Z,2.97
2023-05-04T21:48:36.051Z,3.33
2023-05-04T21:51:04.796Z,3.33
2023-05-04T21:53:34.492Z,3.50
2023-05-04T21:56:05.261Z,3.57
2023-05-04T21:58:32.142Z,3.80
2023-05-04T22:00:59.426Z,3.60
2023-05-04T22:03:28.550Z,3.03
2023-05-04T22:05:57.715Z,3.67
2023-05-04T22:08:27.119Z,4.07
2023-05-04T22:10:56.803Z,3.60
2023-05-04T22:13:23.829Z,2.80
2023-05-04T22:15:51.117Z,3.00
2023-05-04T22:18:18.241Z,4.07
2023-05-04T22:20:45.924Z,3.10
2023-05-04T22:23:13.241Z,4.30
2023-05-04T22:25:41.494Z,3.70
2023-05-04T22:28:08.410Z,4.07
2023-05-04T22:30:35.512Z,4.50
2023-05-04T22:33:02.508Z,3.57
2023-05-04T22:35:31.228Z,4.00
2023-05-04T22:37:58.295Z,4.20
2023-05-04T22:40:25.460Z,3.60
2023-05-04T22:42:53.652Z,4.00
2023-05-04T22:45:20.655Z,4.53
2023-05-04T22:47:47.567Z,4.10
2023-05-04T22:50:14.702Z,4.03
2023-05-04T22:52:41.888Z,4.07
2023-05-04T22:55:09.511Z,3.23
2023-05-04T22:57:36.631Z,3.87
2023-05-04T23:00:07.684Z,4.03
2023-05-04T23:02:35.158Z,3.70
2023-05-04T23:05:02.290Z,3.30
2023-05-04T23:07:29.810Z,3.43
2023-05-04T23:09:56.719Z,3.47
2023-05-04T23:12:25.335Z,3.70
2023-05-04T23:14:52.736Z,3.93
2023-05-04T23:17:21.926Z,3.87
2023-05-04T23:19:48.881Z,4.43
2023-05-04T23:22:15.864Z,3.33
2023-05-04T23:24:42.992Z,4.07
2023-05-04T23:27:11.120Z,3.27
2023-05-04T23:29:37.977Z,3.83
2023-05-04T23:32:05.939Z,3.73
2023-05-04T23:34:34.203Z,3.17
2023-05-04T23:37:01.476Z,3.63
2023-05-04T23:39:28.424Z,3.70
2023-05-04T23:41:55.398Z,3.67
2023-05-04T23:44:22.392Z,3.67
2023-05-04T23:46:49.257Z,3.37
2023-05-04T23:49:16.472Z,3.17
2023-05-04T23:51:45.005Z,4.07
2023-05-04T23:54:11.922Z,3.63
2023-05-04T23:56:38.832Z,3.80
2023-05-04T23:59:05.791Z,3.40
